createdAt,value
2022-12-06T00:01:39.845Z,-22.61
2022-12-06T00:06:53.794Z,-22.56
2022-12-06T00:11:57.616Z,-22.57
2022-12-06T00:17:00.303Z,-22.49
2022-12-06T00:22:03.013Z,-22.41
2022-12-06T00:27:05.665Z,-22.35
2022-12-06T00:32:08.485Z,-22.52
2022-12-06T00:37:11.243Z,-22.42
2022-12-06T00:42:14.090Z,-22.32
2022-12-06T00:47:16.779Z,-22.38
2022-12-06T00:52:19.563Z,-22.31
2022-12-06T00:57:22.182Z,-22.36
2022-12-06T01:02:24.808Z,-22.42
2022-12-06T01:07:27.435Z,-22.40
2022-12-06T01:12:30.116Z,-22.33
2022-12-06T01:17:32.876Z,-22.26
2022-12-06T01:22:35.802Z,-22.19
2022-12-06T01:27:38.479Z,-22.17
2022-12-06T01:32:41.111Z,-22.18
2022-12-06T01:37:43.798Z,-22.18
2022-12-06T01:42:46.507Z,-22.23
2022-12-06T01:47:49.458Z,-22.31
2022-12-06T01:52:54.458Z,-22.38
2022-12-06T01:58:00.062Z,-22.45
2022-12-06T02:03:04.023Z,-22.53
2022-12-06T02:08:10.144Z,-22.47
2022-12-06T02:13:12.888Z,-22.40
2022-12-06T02:18:20.406Z,-22.40
2022-12-06T02:23:50.823Z,-22.39
2022-12-06T02:29:12.273Z,-22.30
2022-12-06T02:34:37.613Z,-22.28
2022-12-06T02:40:06.290Z,-22.25
2022-12-06T02:45:16.465Z,-22.20
2022-12-06T02:50:22.136Z,-22.37
2022-12-06T02:55:25.384Z,-22.29
2022-12-06T03:00:35.258Z,-22.28
2022-12-06T03:06:01.676Z,-22.30
2022-12-06T03:11:04.496Z,-22.27
2022-12-06T03:16:28.961Z,-22.27
2022-12-06T03:21:40.330Z,-22.19
2022-12-06T03:26:46.538Z,-21.98
2022-12-06T03:31:50.057Z,-21.87
2022-12-06T03:36:53.790Z,-21.78
2022-12-06T03:41:59.060Z,-21.70
2022-12-06T03:47:31.074Z,-21.56
2022-12-06T03:52:34.455Z,-21.52
2022-12-06T03:57:37.186Z,-21.44
2022-12-06T04:02:39.813Z,-21.26
2022-12-06T04:07:42.583Z,-21.20
2022-12-06T04:13:03.399Z,-21.06
2022-12-06T04:18:11.315Z,-20.99
2022-12-06T04:23:13.952Z,-20.85
2022-12-06T04:28:35.062Z,-20.79
2022-12-06T04:33:56.369Z,-20.86
2022-12-06T04:38:59.148Z,-20.74
2022-12-06T04:44:01.835Z,-20.73
2022-12-06T04:49:04.871Z,-20.70
2022-12-06T04:54:07.573Z,-20.56
2022-12-06T04:59:10.401Z,-20.57
2022-12-06T05:04:13.271Z,-20.40
2022-12-06T05:09:16.436Z,-20.30
2022-12-06T05:14:19.066Z,-20.18
2022-12-06T05:19:21.867Z,-20.19
2022-12-06T05:24:24.608Z,-20.19
2022-12-06T05:29:27.227Z,-20.05
2022-12-06T05:34:29.876Z,-20.03
2022-12-06T05:39:32.746Z,-20.28
2022-12-06T05:44:35.456Z,-20.17
2022-12-06T05:49:38.156Z,-19.98
2022-12-06T05:54:40.767Z,-19.91
2022-12-06T05:59:43.535Z,-19.79
2022-12-06T06:04:46.171Z,-19.85
2022-12-06T06:09:48.844Z,-19.65
2022-12-06T06:14:52.192Z,-19.51
2022-12-06T06:19:54.869Z,-19.46
2022-12-06T06:24:57.559Z,-19.34
2022-12-06T06:30:00.222Z,-19.23
2022-12-06T06:35:03.996Z,-19.11
2022-12-06T06:40:07.193Z,-18.97
2022-12-06T06:45:10.413Z,-18.97
2022-12-06T06:50:13.237Z,-18.97
2022-12-06T06:55:15.922Z,-18.88
2022-12-06T07:00:18.729Z,-18.76
2022-12-06T07:05:21.516Z,-18.78
2022-12-06T07:10:25.832Z,-18.70
2022-12-06T07:15:28.495Z,-18.71
2022-12-06T07:20:31.187Z,-18.62
2022-12-06T07:25:33.791Z,-18.65
2022-12-06T07:30:36.548Z,-18.57
2022-12-06T07:41:04.990Z,-18.49
2022-12-06T07:46:12.091Z,-18.53
2022-12-06T07:51:14.828Z,-18.50
2022-12-06T07:56:17.496Z,-18.48
2022-12-06T08:01:20.429Z,-18.58
2022-12-06T08:06:23.840Z,-18.58
2022-12-06T08:11:26.837Z,-18.69
2022-12-06T08:16:29.558Z,-18.68
2022-12-06T08:21:32.078Z,-18.73
2022-12-06T08:26:35.934Z,-18.72
2022-12-06T08:31:38.736Z,-18.69
2022-12-06T08:36:41.804Z,-18.74
2022-12-06T08:41:58.446Z,-18.73
2022-12-06T08:47:02.269Z,-18.56
2022-12-06T08:52:05.317Z,-18.53
2022-12-06T08:57:08.240Z,-18.57
2022-12-06T09:02:13.807Z,-18.58
2022-12-06T09:07:16.456Z,-18.61
2022-12-06T09:12:19.168Z,-18.49
2022-12-06T09:17:21.924Z,-18.55
2022-12-06T09:22:24.733Z,-18.54
2022-12-06T09:27:30.490Z,-18.90
2022-12-06T09:32:33.182Z,-18.54
2022-12-06T09:37:35.875Z,-18.43
2022-12-06T09:43:01.779Z,-18.45
2022-12-06T09:48:53.001Z,-18.46
2022-12-06T09:54:20.159Z,-18.36
2022-12-06T09:59:32.176Z,-18.24
2022-12-06T10:04:59.019Z,-18.17
2022-12-06T10:10:17.713Z,-18.17
2022-12-06T10:15:20.478Z,-18.12
2022-12-06T10:20:25.913Z,-18.08
2022-12-06T10:25:39.637Z,-18.08
2022-12-06T10:30:52.601Z,-18.07
2022-12-06T10:36:04.212Z,-18.08
2022-12-06T10:41:34.892Z,-17.97
2022-12-06T10:46:56.359Z,-17.86
2022-12-06T10:52:05.051Z,-17.84
2022-12-06T10:57:14.655Z,-17.96
2022-12-06T11:02:23.458Z,-17.83
2022-12-06T11:07:31.510Z,-17.83
2022-12-06T11:12:36.042Z,-17.76
2022-12-06T11:17:40.720Z,-17.77
2022-12-06T11:23:06.413Z,-17.75
2022-12-06T11:28:32.396Z,-17.76
2022-12-06T11:33:35.347Z,-17.83
2022-12-06T11:38:41.144Z,-17.75
2022-12-06T11:43:45.881Z,-17.90
2022-12-06T11:48:48.766Z,-17.63
2022-12-06T11:54:07.580Z,-17.60
2022-12-06T11:59:25.561Z,-17.54
2022-12-06T12:04:44.510Z,-17.49
2022-12-06T12:10:01.053Z,-17.51
2022-12-06T12:15:04.069Z,-17.57
2022-12-06T12:20:08.686Z,-17.54
2022-12-06T12:25:35.447Z,-17.54
2022-12-06T12:30:41.362Z,-17.51
2022-12-06T12:35:49.674Z,-17.57
2022-12-06T12:40:54.616Z,-17.62
2022-12-06T12:46:12.427Z,-17.51
2022-12-06T12:51:28.410Z,-17.51
2022-12-06T12:56:36.646Z,-17.56
2022-12-06T13:02:05.831Z,-17.50
2022-12-06T13:07:30.706Z,-17.69
2022-12-06T13:12:42.940Z,-17.44
2022-12-06T13:17:59.632Z,-17.52
2022-12-06T13:23:09.080Z,-17.45
2022-12-06T13:28:23.695Z,-17.43
2022-12-06T13:33:27.884Z,-17.47
2022-12-06T13:38:38.661Z,-17.47
2022-12-06T13:43:41.349Z,-17.47
2022-12-06T13:49:00.086Z,-17.48
2022-12-06T13:54:05.674Z,-17.45
2022-12-06T13:59:15.603Z,-17.47
2022-12-06T14:09:38.371Z,-17.50
2022-12-06T14:14:41.235Z,-17.51
2022-12-06T14:19:49.683Z,-17.56
2022-12-06T14:25:01.176Z,-17.57
2022-12-06T14:30:14.981Z,-17.59
2022-12-06T14:35:29.722Z,-17.67
2022-12-06T14:40:56.687Z,-17.68
2022-12-06T14:46:01.622Z,-17.86
2022-12-06T14:51:04.670Z,-17.68
2022-12-06T14:56:08.182Z,-17.65
2022-12-06T15:01:20.486Z,-17.69
2022-12-06T15:06:24.667Z,-17.90
2022-12-06T15:11:48.504Z,-17.72
2022-12-06T15:17:11.599Z,-17.65
2022-12-06T15:22:21.361Z,-17.67
2022-12-06T15:27:28.302Z,-17.69
2022-12-06T15:32:31.056Z,-17.62
2022-12-06T15:37:43.973Z,-17.60
2022-12-06T15:42:51.590Z,-17.69
2022-12-06T15:47:54.580Z,-17.62
2022-12-06T15:52:57.144Z,-17.53
2022-12-06T15:57:59.795Z,-17.68
2022-12-06T16:03:03.307Z,-17.56
2022-12-06T16:08:08.907Z,-17.59
2022-12-06T16:13:25.021Z,-17.59
2022-12-06T16:18:27.752Z,-17.64
2022-12-06T16:24:12.689Z,-17.50
2022-12-06T16:29:25.356Z,-17.59
2022-12-06T16:34:29.941Z,-17.59
2022-12-06T16:39:34.205Z,-17.48
2022-12-06T16:44:58.130Z,-17.52
2022-12-06T16:50:01.057Z,-17.43
2022-12-06T16:55:04.191Z,-17.43
2022-12-06T17:00:07.775Z,-17.43
2022-12-06T17:05:21.004Z,-17.45
2022-12-06T17:10:23.809Z,-17.50
2022-12-06T17:15:26.468Z,-17.52
2022-12-06T17:20:29.300Z,-17.49
2022-12-06T17:25:31.927Z,-17.54
2022-12-06T17:30:34.953Z,-17.47
2022-12-06T17:35:37.578Z,-17.67
2022-12-06T17:40:40.407Z,-17.44
2022-12-06T17:45:43.082Z,-17.47
2022-12-06T17:50:45.789Z,-17.49
2022-12-06T17:55:48.516Z,-17.46
2022-12-06T18:00:51.338Z,-17.48
2022-12-06T18:05:54.854Z,-17.79
2022-12-06T18:10:58.747Z,-17.48
2022-12-06T18:16:01.637Z,-17.53
2022-12-06T18:21:08.427Z,-17.60
2022-12-06T18:26:14.779Z,-18.06
2022-12-06T18:31:17.530Z,-17.53
2022-12-06T18:36:20.995Z,-17.56
2022-12-06T18:41:23.817Z,-17.47
2022-12-06T18:46:27.222Z,-17.55
2022-12-06T18:51:32.109Z,-17.55
2022-12-06T18:56:35.478Z,-17.59
2022-12-06T19:01:39.255Z,-17.58
2022-12-06T19:06:43.197Z,-17.52
2022-12-06T19:11:46.566Z,-17.60
2022-12-06T19:16:51.233Z,-17.51
2022-12-06T19:21:55.164Z,-17.55
2022-12-06T19:27:00.938Z,-17.52
2022-12-06T19:32:03.596Z,-17.56
2022-12-06T19:37:06.267Z,-17.76
2022-12-06T19:42:27.997Z,-17.57
2022-12-06T19:47:30.737Z,-17.48
2022-12-06T19:52:33.349Z,-17.46
2022-12-06T19:57:36.230Z,-17.44
2022-12-06T20:02:38.936Z,-17.47
2022-12-06T20:07:41.706Z,-17.45
2022-12-06T20:12:44.371Z,-17.43
2022-12-06T20:17:47.193Z,-17.46
2022-12-06T20:22:49.816Z,-17.38
2022-12-06T20:27:52.560Z,-17.43
2022-12-06T20:32:55.318Z,-17.35
2022-12-06T20:37:58.116Z,-17.30
2022-12-06T20:43:00.739Z,-17.36
2022-12-06T20:48:03.434Z,-17.26
2022-12-06T20:53:06.151Z,-17.20
2022-12-06T20:58:08.786Z,-17.25
2022-12-06T21:03:11.485Z,-17.18
2022-12-06T21:08:14.310Z,-17.12
2022-12-06T21:13:16.997Z,-17.12
2022-12-06T21:18:20.055Z,-17.13
2022-12-06T21:23:22.747Z,-17.05
2022-12-06T21:28:25.422Z,-17.13
2022-12-06T21:33:28.036Z,-17.28
2022-12-06T21:38:31.466Z,-17.09
2022-12-06T21:43:35.453Z,-16.99
2022-12-06T21:48:38.478Z,-17.02
2022-12-06T21:53:41.318Z,-17.13
2022-12-06T21:58:44.891Z,-17.02
2022-12-06T22:03:49.006Z,-17.01
2022-12-06T22:08:57.887Z,-16.91
2022-12-06T22:14:01.427Z,-16.82
2022-12-06T22:19:04.419Z,-16.90
2022-12-06T22:24:07.421Z,-16.84
2022-12-06T22:29:10.281Z,-16.81
2022-12-06T22:34:13.122Z,-16.97
2022-12-06T22:39:15.755Z,-16.82
2022-12-06T22:44:19.861Z,-17.06
2022-12-06T22:49:22.579Z,-16.84
2022-12-06T22:54:25.367Z,-16.79
2022-12-06T22:59:28.014Z,-16.77
2022-12-06T23:04:30.793Z,-16.88
2022-12-06T23:09:33.635Z,-16.83
2022-12-06T23:14:36.554Z,-16.83
2022-12-06T23:19:39.105Z,-16.82
2022-12-06T23:24:41.921Z,-16.81
2022-12-06T23:29:44.706Z,-16.78
2022-12-06T23:34:47.387Z,-16.81
2022-12-06T23:39:50.020Z,-16.80
2022-12-06T23:44:52.954Z,-16.71
2022-12-06T23:49:55.711Z,-16.71
2022-12-06T23:54:59.835Z,-16.73
